BTR7340 LIME-LDRI
Flight info
| Callsign | BTR7340 |
|---|---|
| Flight time | 1h 4m |
| Altitude | 37000 |
| Route | OSKOR L615 ADOSA L612 ALBET DCT LAREN Q561 AKADO L615 ROTAR M167 BUGEV DCT GIRDA |
| Aircraft | B738/M-SDE2E3FGHIRWXY/LB1 |
Departure
| Time | 2026-04-23 06:57 |
|---|---|
| Airport | Il Caravaggio International Airport (LIME) |
Arrival
| Time | 2026-04-23 08:01 |
|---|---|
| Airport | Rijeka Airport (LDRI) |
| Time | Latitude | Longitude | Altitude | Speed | Heading |
|---|---|---|---|---|---|
| 2026-04-23 06:22 | 45.66634 | 9.70177 | 781 ft | 0 kts | 193° |
| 2026-04-23 06:49 | 45.66639 | 9.70179 | 781 ft | 2 kts | 193° |
| 2026-04-23 06:49 | 45.66655 | 9.70184 | 781 ft | 2 kts | 193° |
| 2026-04-23 06:49 | 45.66670 | 9.70189 | 781 ft | 2 kts | 194° |
| 2026-04-23 06:50 | 45.66686 | 9.70196 | 781 ft | 2 kts | 211° |
| 2026-04-23 06:50 | 45.66697 | 9.70211 | 781 ft | 1 kts | 275° |
| 2026-04-23 06:50 | 45.66696 | 9.70221 | 781 ft | 0 kts | 287° |
| 2026-04-23 06:52 | 45.66696 | 9.70220 | 781 ft | 0 kts | 287° |
| 2026-04-23 06:52 | 45.66699 | 9.70205 | 781 ft | 3 kts | 288° |
| 2026-04-23 06:53 | 45.66708 | 9.70164 | 781 ft | 6 kts | 288° |
| 2026-04-23 06:53 | 45.66723 | 9.70098 | 782 ft | 8 kts | 288° |
| 2026-04-23 06:53 | 45.66742 | 9.70009 | 782 ft | 11 kts | 282° |
| 2026-04-23 06:53 | 45.66763 | 9.69897 | 783 ft | 13 kts | 285° |
| 2026-04-23 06:54 | 45.66788 | 9.69765 | 784 ft | 15 kts | 285° |
| 2026-04-23 06:54 | 45.66815 | 9.69614 | 785 ft | 16 kts | 285° |
| 2026-04-23 06:54 | 45.66843 | 9.69464 | 786 ft | 15 kts | 285° |
| 2026-04-23 06:54 | 45.66872 | 9.69320 | 788 ft | 15 kts | 284° |
| 2026-04-23 06:55 | 45.66896 | 9.69182 | 789 ft | 14 kts | 283° |
| 2026-04-23 06:55 | 45.66909 | 9.69046 | 790 ft | 13 kts | 277° |
| 2026-04-23 06:55 | 45.66927 | 9.68919 | 791 ft | 13 kts | 299° |
| 2026-04-23 06:55 | 45.67007 | 9.68894 | 791 ft | 13 kts | 11° |
| 2026-04-23 06:56 | 45.67061 | 9.68985 | 790 ft | 14 kts | 62° |
| 2026-04-23 06:56 | 45.67056 | 9.69191 | 787 ft | 45 kts | 109° |
| 2026-04-23 06:56 | 45.66899 | 9.70029 | 784 ft | 127 kts | 104° |
| 2026-04-23 06:56 | 45.66621 | 9.71536 | 1014 ft | 173 kts | 103° |
| 2026-04-23 06:57 | 45.66335 | 9.73164 | 2116 ft | 169 kts | 108° |
| 2026-04-23 06:57 | 45.65798 | 9.74737 | 2823 ft | 191 kts | 125° |
| 2026-04-23 06:57 | 45.64829 | 9.76238 | 3133 ft | 219 kts | 142° |
| 2026-04-23 06:57 | 45.63458 | 9.77284 | 3630 ft | 229 kts | 163° |
| 2026-04-23 06:58 | 45.61867 | 9.77565 | 4265 ft | 234 kts | 185° |
| 2026-04-23 06:58 | 45.60300 | 9.76954 | 5027 ft | 237 kts | 209° |
| 2026-04-23 06:58 | 45.59009 | 9.75520 | 5886 ft | 236 kts | 230° |
| 2026-04-23 06:58 | 45.58040 | 9.73615 | 6720 ft | 239 kts | 237° |
| 2026-04-23 06:59 | 45.57101 | 9.71618 | 7445 ft | 245 kts | 236° |
| 2026-04-23 06:59 | 45.56112 | 9.69602 | 8185 ft | 250 kts | 235° |
| 2026-04-23 06:59 | 45.55086 | 9.67572 | 8942 ft | 255 kts | 234° |
| 2026-04-23 06:59 | 45.53804 | 9.65814 | 9629 ft | 261 kts | 206° |
| 2026-04-23 07:00 | 45.52071 | 9.65109 | 10384 ft | 261 kts | 186° |
| 2026-04-23 07:00 | 45.50249 | 9.64774 | 11071 ft | 266 kts | 185° |
| 2026-04-23 07:00 | 45.48394 | 9.64452 | 11772 ft | 271 kts | 185° |
| 2026-04-23 07:00 | 45.46534 | 9.64255 | 12460 ft | 273 kts | 171° |
| 2026-04-23 07:01 | 45.44750 | 9.65132 | 13153 ft | 268 kts | 141° |
| 2026-04-23 07:01 | 45.43512 | 9.67034 | 13852 ft | 262 kts | 113° |
| 2026-04-23 07:01 | 45.43031 | 9.69480 | 14521 ft | 256 kts | 87° |
| 2026-04-23 07:01 | 45.43302 | 9.71911 | 15190 ft | 252 kts | 67° |
| 2026-04-23 07:02 | 45.44332 | 9.73926 | 15824 ft | 254 kts | 34° |
| 2026-04-23 07:02 | 45.46017 | 9.74689 | 16439 ft | 263 kts | 5° |
| 2026-04-23 07:02 | 45.47862 | 9.74659 | 17065 ft | 267 kts | 3° |
| 2026-04-23 07:02 | 45.49735 | 9.74665 | 17702 ft | 270 kts | 6° |
| 2026-04-23 07:03 | 45.51624 | 9.74778 | 18347 ft | 273 kts | 8° |
| 2026-04-23 07:03 | 45.53526 | 9.74987 | 18932 ft | 275 kts | 10° |
| 2026-04-23 07:03 | 45.55437 | 9.75269 | 19509 ft | 277 kts | 11° |
| 2026-04-23 07:03 | 45.57361 | 9.75590 | 20077 ft | 280 kts | 12° |
| 2026-04-23 07:04 | 45.59299 | 9.75929 | 20644 ft | 282 kts | 13° |
| 2026-04-23 07:04 | 45.61255 | 9.76297 | 21199 ft | 283 kts | 18° |
| 2026-04-23 07:04 | 45.62994 | 9.77373 | 21700 ft | 275 kts | 42° |
| 2026-04-23 07:04 | 45.64258 | 9.79367 | 22194 ft | 273 kts | 62° |
| 2026-04-23 07:05 | 45.64969 | 9.81948 | 22305 ft | 289 kts | 81° |
| 2026-04-23 07:05 | 45.65102 | 9.84888 | 22456 ft | 305 kts | 88° |
| 2026-04-23 07:05 | 45.65085 | 9.88008 | 22584 ft | 322 kts | 89° |
| 2026-04-23 07:05 | 45.65042 | 9.91292 | 22699 ft | 338 kts | 90° |
| 2026-04-23 07:06 | 45.65001 | 9.94731 | 22812 ft | 354 kts | 89° |
| 2026-04-23 07:06 | 45.64970 | 9.98316 | 22918 ft | 368 kts | 89° |
| 2026-04-23 07:06 | 45.64947 | 10.02026 | 23150 ft | 378 kts | 89° |
| 2026-04-23 07:06 | 45.64929 | 10.05805 | 23624 ft | 381 kts | 89° |
| 2026-04-23 07:07 | 45.64911 | 10.09595 | 24138 ft | 381 kts | 89° |
| 2026-04-23 07:07 | 45.64893 | 10.13393 | 24530 ft | 385 kts | 89° |
| 2026-04-23 07:07 | 45.64882 | 10.17236 | 24888 ft | 388 kts | 89° |
| 2026-04-23 07:07 | 45.64874 | 10.21110 | 25308 ft | 391 kts | 89° |
| 2026-04-23 07:08 | 45.64862 | 10.25000 | 25703 ft | 393 kts | 89° |
| 2026-04-23 07:08 | 45.64852 | 10.28917 | 26080 ft | 396 kts | 89° |
| 2026-04-23 07:08 | 45.64839 | 10.32868 | 26454 ft | 398 kts | 89° |
| 2026-04-23 07:08 | 45.64824 | 10.36837 | 26844 ft | 401 kts | 89° |
| 2026-04-23 07:09 | 45.64807 | 10.40827 | 27223 ft | 403 kts | 89° |
| 2026-04-23 07:09 | 45.64794 | 10.44840 | 27591 ft | 405 kts | 89° |
| 2026-04-23 07:09 | 45.64794 | 10.48884 | 27939 ft | 408 kts | 89° |
| 2026-04-23 07:09 | 45.64798 | 10.52943 | 28285 ft | 409 kts | 89° |
| 2026-04-23 07:10 | 45.64801 | 10.57023 | 28625 ft | 412 kts | 89° |
| 2026-04-23 07:10 | 45.64801 | 10.61124 | 28951 ft | 414 kts | 89° |
| 2026-04-23 07:10 | 45.64790 | 10.65257 | 29266 ft | 417 kts | 90° |
| 2026-04-23 07:10 | 45.64748 | 10.69408 | 29596 ft | 418 kts | 90° |
| 2026-04-23 07:11 | 45.64697 | 10.73573 | 29984 ft | 419 kts | 90° |
| 2026-04-23 07:11 | 45.64647 | 10.77719 | 30469 ft | 416 kts | 90° |
| 2026-04-23 07:11 | 45.64600 | 10.81851 | 30819 ft | 416 kts | 90° |
| 2026-04-23 07:12 | 45.64523 | 10.90138 | 31420 ft | 418 kts | 90° |
| 2026-04-23 07:12 | 45.64485 | 10.94283 | 31753 ft | 417 kts | 90° |
| 2026-04-23 07:12 | 45.64303 | 10.98415 | 32072 ft | 418 kts | 98° |
| 2026-04-23 07:12 | 45.63643 | 11.02461 | 32358 ft | 419 kts | 105° |
| 2026-04-23 07:13 | 45.62633 | 11.06375 | 32656 ft | 421 kts | 112° |
| 2026-04-23 07:13 | 45.61217 | 11.10049 | 32940 ft | 424 kts | 120° |
| 2026-04-23 07:13 | 45.59620 | 11.13589 | 33260 ft | 424 kts | 120° |
| 2026-04-23 07:13 | 45.58007 | 11.17117 | 33547 ft | 424 kts | 120° |
| 2026-04-23 07:14 | 45.56401 | 11.20643 | 33837 ft | 425 kts | 120° |
| 2026-04-23 07:14 | 45.54794 | 11.24187 | 34131 ft | 425 kts | 120° |
| 2026-04-23 07:14 | 45.53194 | 11.27726 | 34402 ft | 425 kts | 120° |
| 2026-04-23 07:14 | 45.51590 | 11.31279 | 34579 ft | 427 kts | 120° |
| 2026-04-23 07:15 | 45.49975 | 11.34853 | 34757 ft | 429 kts | 120° |
| 2026-04-23 07:15 | 45.48360 | 11.38425 | 34976 ft | 429 kts | 120° |
| 2026-04-23 07:15 | 45.46742 | 11.41997 | 35202 ft | 430 kts | 120° |
| 2026-04-23 07:16 | 45.43481 | 11.49198 | 35272 ft | 434 kts | 118° |
| 2026-04-23 07:16 | 45.41011 | 11.56864 | 35285 ft | 426 kts | 108° |
| 2026-04-23 07:17 | 45.38963 | 11.64738 | 35292 ft | 423 kts | 108° |
| 2026-04-23 07:17 | 45.36895 | 11.72569 | 35296 ft | 422 kts | 108° |
| 2026-04-23 07:18 | 45.34801 | 11.80367 | 35294 ft | 421 kts | 108° |
| 2026-04-23 07:18 | 45.32704 | 11.88132 | 35297 ft | 421 kts | 108° |
| 2026-04-23 07:19 | 45.30653 | 11.95698 | 35272 ft | 396 kts | 108° |
| 2026-04-23 07:19 | 45.29678 | 11.99282 | 35266 ft | 383 kts | 108° |
| 2026-04-23 07:19 | 45.28818 | 12.02780 | 35264 ft | 367 kts | 101° |
| 2026-04-23 07:19 | 45.28416 | 12.06273 | 35274 ft | 351 kts | 93° |
| 2026-04-23 07:20 | 45.28337 | 12.09685 | 35277 ft | 345 kts | 86° |
| 2026-04-23 07:20 | 45.29054 | 12.16505 | 35299 ft | 355 kts | 79° |
| 2026-04-23 07:21 | 45.29976 | 12.23520 | 35301 ft | 366 kts | 79° |
| 2026-04-23 07:21 | 45.30890 | 12.30658 | 35294 ft | 367 kts | 79° |
| 2026-04-23 07:22 | 45.31772 | 12.37692 | 35282 ft | 356 kts | 79° |
| 2026-04-23 07:22 | 45.32630 | 12.44579 | 35304 ft | 357 kts | 79° |
| 2026-04-23 07:23 | 45.32919 | 12.51622 | 35304 ft | 360 kts | 94° |
| 2026-04-23 07:23 | 45.31898 | 12.58620 | 35297 ft | 363 kts | 101° |
| 2026-04-23 07:24 | 45.30672 | 12.65601 | 35293 ft | 365 kts | 101° |
| 2026-04-23 07:24 | 45.29484 | 12.72524 | 35093 ft | 354 kts | 101° |
| 2026-04-23 07:24 | 45.28909 | 12.75899 | 34786 ft | 350 kts | 101° |
| 2026-04-23 07:25 | 45.28356 | 12.79250 | 34442 ft | 347 kts | 98° |
| 2026-04-23 07:25 | 45.27984 | 12.82614 | 34113 ft | 343 kts | 96° |
| 2026-04-23 07:25 | 45.27666 | 12.85946 | 33765 ft | 339 kts | 95° |
| 2026-04-23 07:25 | 45.27347 | 12.89245 | 33395 ft | 336 kts | 96° |
| 2026-04-23 07:26 | 45.27020 | 12.92520 | 33019 ft | 334 kts | 96° |
| 2026-04-23 07:26 | 45.26716 | 12.95773 | 32656 ft | 330 kts | 91° |
| 2026-04-23 07:26 | 45.26759 | 12.99003 | 32298 ft | 326 kts | 83° |
| 2026-04-23 07:26 | 45.27085 | 13.02168 | 31961 ft | 323 kts | 77° |
| 2026-04-23 07:27 | 45.27723 | 13.05219 | 31296 ft | 325 kts | 71° |
| 2026-04-23 07:27 | 45.28521 | 13.08316 | 29852 ft | 344 kts | 69° |
| 2026-04-23 07:27 | 45.29401 | 13.11578 | 28221 ft | 362 kts | 69° |
| 2026-04-23 07:27 | 45.30324 | 13.14980 | 26798 ft | 374 kts | 69° |
| 2026-04-23 07:28 | 45.31260 | 13.18452 | 25639 ft | 379 kts | 68° |
| 2026-04-23 07:28 | 45.32106 | 13.21966 | 24946 ft | 372 kts | 73° |
| 2026-04-23 07:28 | 45.32605 | 13.25533 | 24274 ft | 366 kts | 83° |
| 2026-04-23 07:28 | 45.32396 | 13.29142 | 23394 ft | 372 kts | 101° |
| 2026-04-23 07:29 | 45.31292 | 13.32490 | 22448 ft | 381 kts | 121° |
| 2026-04-23 07:29 | 45.29403 | 13.35170 | 21569 ft | 391 kts | 140° |
| 2026-04-23 07:29 | 45.26935 | 13.36849 | 20750 ft | 400 kts | 160° |
| 2026-04-23 07:29 | 45.25109 | 13.37300 | 20220 ft | 405 kts | 173° |
| 2026-04-23 07:30 | 45.22305 | 13.36905 | 19460 ft | 409 kts | 193° |
| 2026-04-23 07:30 | 45.19711 | 13.35253 | 18737 ft | 410 kts | 213° |
| 2026-04-23 07:30 | 45.17637 | 13.32539 | 17966 ft | 405 kts | 233° |
| 2026-04-23 07:30 | 45.15772 | 13.27981 | 16999 ft | 396 kts | 245° |
| 2026-04-23 07:31 | 45.14659 | 13.24446 | 16247 ft | 390 kts | 256° |
| 2026-04-23 07:31 | 45.14365 | 13.21967 | 15721 ft | 382 kts | 274° |
| 2026-04-23 07:31 | 45.14862 | 13.18386 | 15026 ft | 365 kts | 300° |
| 2026-04-23 07:31 | 45.16258 | 13.15515 | 14436 ft | 347 kts | 319° |
| 2026-04-23 07:32 | 45.18656 | 13.12848 | 14132 ft | 319 kts | 335° |
| 2026-04-23 07:32 | 45.19993 | 13.11948 | 13952 ft | 312 kts | 344° |
| 2026-04-23 07:32 | 45.22071 | 13.11211 | 13675 ft | 306 kts | 357° |
| 2026-04-23 07:32 | 45.24188 | 13.11245 | 13412 ft | 304 kts | 11° |
| 2026-04-23 07:33 | 45.26205 | 13.12070 | 13147 ft | 300 kts | 26° |
| 2026-04-23 07:33 | 45.27977 | 13.13599 | 12887 ft | 297 kts | 38° |
| 2026-04-23 07:33 | 45.29487 | 13.15582 | 12617 ft | 296 kts | 48° |
| 2026-04-23 07:33 | 45.30606 | 13.18040 | 12349 ft | 299 kts | 63° |
| 2026-04-23 07:34 | 45.31406 | 13.20772 | 12109 ft | 299 kts | 65° |
| 2026-04-23 07:34 | 45.32158 | 13.23524 | 11851 ft | 299 kts | 66° |
| 2026-04-23 07:34 | 45.32898 | 13.26279 | 11598 ft | 298 kts | 66° |
| 2026-04-23 07:34 | 45.33634 | 13.29023 | 11348 ft | 297 kts | 66° |
| 2026-04-23 07:35 | 45.34369 | 13.31759 | 11100 ft | 296 kts | 66° |
| 2026-04-23 07:35 | 45.35096 | 13.34459 | 10860 ft | 296 kts | 66° |
| 2026-04-23 07:35 | 45.35832 | 13.37187 | 10616 ft | 295 kts | 66° |
| 2026-04-23 07:35 | 45.36567 | 13.39910 | 10372 ft | 295 kts | 66° |
| 2026-04-23 07:36 | 45.37300 | 13.42626 | 10129 ft | 293 kts | 66° |
| 2026-04-23 07:36 | 45.38018 | 13.45288 | 9840 ft | 283 kts | 66° |
| 2026-04-23 07:36 | 45.38703 | 13.47839 | 9562 ft | 271 kts | 66° |
| 2026-04-23 07:36 | 45.39367 | 13.50306 | 9293 ft | 263 kts | 66° |
| 2026-04-23 07:37 | 45.40015 | 13.52712 | 9020 ft | 257 kts | 66° |
| 2026-04-23 07:37 | 45.40647 | 13.55066 | 8749 ft | 253 kts | 66° |
| 2026-04-23 07:37 | 45.41274 | 13.57397 | 8498 ft | 251 kts | 66° |
| 2026-04-23 07:37 | 45.41901 | 13.59723 | 8247 ft | 252 kts | 66° |
| 2026-04-23 07:38 | 45.42525 | 13.62048 | 8080 ft | 252 kts | 66° |
| 2026-04-23 07:38 | 45.43138 | 13.64332 | 8023 ft | 241 kts | 66° |
| 2026-04-23 07:38 | 45.43717 | 13.66503 | 8016 ft | 227 kts | 66° |
| 2026-04-23 07:38 | 45.44268 | 13.68568 | 8025 ft | 220 kts | 65° |
| 2026-04-23 07:39 | 45.44814 | 13.70608 | 8035 ft | 222 kts | 65° |
| 2026-04-23 07:39 | 45.45368 | 13.72674 | 8035 ft | 224 kts | 65° |
| 2026-04-23 07:39 | 45.45925 | 13.74758 | 8028 ft | 226 kts | 65° |
| 2026-04-23 07:39 | 45.46472 | 13.76852 | 8025 ft | 226 kts | 69° |
| 2026-04-23 07:40 | 45.46729 | 13.79067 | 8041 ft | 227 kts | 82° |
| 2026-04-23 07:40 | 45.46796 | 13.81318 | 8013 ft | 227 kts | 84° |
| 2026-04-23 07:40 | 45.46835 | 13.83567 | 8020 ft | 228 kts | 83° |
| 2026-04-23 07:40 | 45.46880 | 13.85824 | 8017 ft | 228 kts | 83° |
| 2026-04-23 07:41 | 45.46928 | 13.88074 | 8017 ft | 226 kts | 83° |
| 2026-04-23 07:41 | 45.46979 | 13.90305 | 8022 ft | 225 kts | 83° |
| 2026-04-23 07:41 | 45.47030 | 13.92531 | 8011 ft | 225 kts | 83° |
| 2026-04-23 07:41 | 45.47082 | 13.94748 | 8008 ft | 223 kts | 83° |
| 2026-04-23 07:42 | 45.47138 | 13.96957 | 8007 ft | 223 kts | 83° |
| 2026-04-23 07:42 | 45.47194 | 13.99161 | 8017 ft | 222 kts | 83° |
| 2026-04-23 07:42 | 45.47252 | 14.01372 | 8032 ft | 226 kts | 83° |
| 2026-04-23 07:42 | 45.47313 | 14.03631 | 7989 ft | 228 kts | 83° |
| 2026-04-23 07:43 | 45.47371 | 14.05886 | 8004 ft | 228 kts | 83° |
| 2026-04-23 07:43 | 45.47427 | 14.08138 | 7998 ft | 228 kts | 83° |
| 2026-04-23 07:43 | 45.47483 | 14.10365 | 8013 ft | 228 kts | 83° |
| 2026-04-23 07:43 | 45.47537 | 14.12627 | 7987 ft | 228 kts | 85° |
| 2026-04-23 07:44 | 45.47291 | 14.14899 | 7698 ft | 242 kts | 103° |
| 2026-04-23 07:44 | 45.46725 | 14.17185 | 7295 ft | 247 kts | 105° |
| 2026-04-23 07:44 | 45.46121 | 14.19512 | 6860 ft | 252 kts | 105° |
| 2026-04-23 07:44 | 45.45518 | 14.21872 | 6419 ft | 255 kts | 106° |
| 2026-04-23 07:45 | 45.44912 | 14.24244 | 6081 ft | 254 kts | 106° |
| 2026-04-23 07:45 | 45.44322 | 14.26609 | 5763 ft | 253 kts | 106° |
| 2026-04-23 07:45 | 45.43733 | 14.28952 | 5471 ft | 251 kts | 105° |
| 2026-04-23 07:45 | 45.43160 | 14.31280 | 5173 ft | 248 kts | 106° |
| 2026-04-23 07:46 | 45.42595 | 14.33579 | 4892 ft | 245 kts | 106° |
| 2026-04-23 07:46 | 45.41952 | 14.35804 | 4706 ft | 243 kts | 123° |
| 2026-04-23 07:46 | 45.40682 | 14.37319 | 4597 ft | 236 kts | 154° |
| 2026-04-23 07:46 | 45.39106 | 14.37848 | 4546 ft | 234 kts | 179° |
| 2026-04-23 07:47 | 45.37513 | 14.37400 | 4459 ft | 238 kts | 206° |
| 2026-04-23 07:47 | 45.36243 | 14.35990 | 4512 ft | 233 kts | 233° |
| 2026-04-23 07:47 | 45.35543 | 14.33933 | 4486 ft | 232 kts | 260° |
| 2026-04-23 07:47 | 45.35470 | 14.31680 | 4502 ft | 228 kts | 283° |
| 2026-04-23 07:48 | 45.35895 | 14.29507 | 4480 ft | 230 kts | 291° |
| 2026-04-23 07:48 | 45.36423 | 14.27376 | 4489 ft | 227 kts | 292° |
| 2026-04-23 07:48 | 45.36945 | 14.25273 | 4461 ft | 224 kts | 292° |
| 2026-04-23 07:48 | 45.37458 | 14.23192 | 4492 ft | 222 kts | 292° |
| 2026-04-23 07:49 | 45.38036 | 14.21178 | 4458 ft | 218 kts | 307° |
| 2026-04-23 07:49 | 45.39103 | 14.19679 | 4485 ft | 218 kts | 330° |
| 2026-04-23 07:49 | 45.40507 | 14.18870 | 4539 ft | 222 kts | 351° |
| 2026-04-23 07:49 | 45.42014 | 14.19062 | 4508 ft | 215 kts | 21° |
| 2026-04-23 07:50 | 45.43289 | 14.20168 | 4521 ft | 213 kts | 42° |
| 2026-04-23 07:50 | 45.44172 | 14.21839 | 4499 ft | 212 kts | 64° |
| 2026-04-23 07:50 | 45.44569 | 14.23877 | 4480 ft | 216 kts | 83° |
| 2026-04-23 07:50 | 45.44439 | 14.25962 | 4487 ft | 209 kts | 102° |
| 2026-04-23 07:51 | 45.43996 | 14.27896 | 4504 ft | 203 kts | 108° |
| 2026-04-23 07:51 | 45.43525 | 14.29769 | 4499 ft | 198 kts | 106° |
| 2026-04-23 07:51 | 45.43073 | 14.31628 | 4492 ft | 200 kts | 105° |
| 2026-04-23 07:51 | 45.42616 | 14.33511 | 4498 ft | 202 kts | 105° |
| 2026-04-23 07:52 | 45.42081 | 14.35383 | 4456 ft | 211 kts | 122° |
| 2026-04-23 07:52 | 45.40943 | 14.36638 | 4527 ft | 206 kts | 144° |
| 2026-04-23 07:52 | 45.39779 | 14.37870 | 4398 ft | 212 kts | 138° |
| 2026-04-23 07:52 | 45.38589 | 14.39203 | 4103 ft | 222 kts | 137° |
| 2026-04-23 07:53 | 45.37389 | 14.40554 | 3760 ft | 224 kts | 150° |
| 2026-04-23 07:53 | 45.35900 | 14.41042 | 3496 ft | 220 kts | 187° |
| 2026-04-23 07:53 | 45.34547 | 14.40235 | 3537 ft | 201 kts | 218° |
| 2026-04-23 07:53 | 45.33461 | 14.39002 | 3392 ft | 197 kts | 221° |
| 2026-04-23 07:54 | 45.32516 | 14.37696 | 3371 ft | 189 kts | 242° |
| 2026-04-23 07:54 | 45.32247 | 14.35939 | 3397 ft | 181 kts | 284° |
| 2026-04-23 07:54 | 45.32797 | 14.34374 | 3420 ft | 179 kts | 310° |
| 2026-04-23 07:54 | 45.33566 | 14.32999 | 3395 ft | 179 kts | 312° |
| 2026-04-23 07:55 | 45.34351 | 14.31648 | 3379 ft | 175 kts | 318° |
| 2026-04-23 07:55 | 45.35405 | 14.30900 | 3420 ft | 174 kts | 358° |
| 2026-04-23 07:55 | 45.36551 | 14.31360 | 3393 ft | 175 kts | 34° |
| 2026-04-23 07:55 | 45.37291 | 14.32699 | 3371 ft | 173 kts | 61° |
| 2026-04-23 07:56 | 45.37827 | 14.34250 | 3300 ft | 176 kts | 62° |
| 2026-04-23 07:56 | 45.38353 | 14.35784 | 3312 ft | 175 kts | 60° |
| 2026-04-23 07:56 | 45.38921 | 14.37415 | 3536 ft | 190 kts | 61° |
| 2026-04-23 07:56 | 45.39139 | 14.39279 | 3471 ft | 197 kts | 102° |
| 2026-04-23 07:57 | 45.38360 | 14.40812 | 3379 ft | 195 kts | 149° |
| 2026-04-23 07:57 | 45.37125 | 14.41485 | 3423 ft | 188 kts | 150° |
| 2026-04-23 07:57 | 45.36164 | 14.42721 | 3438 ft | 194 kts | 128° |
| 2026-04-23 07:57 | 45.35006 | 14.43705 | 3268 ft | 195 kts | 162° |
| 2026-04-23 07:58 | 45.33756 | 14.44400 | 2981 ft | 196 kts | 143° |
| 2026-04-23 07:58 | 45.32699 | 14.45607 | 2720 ft | 198 kts | 137° |
| 2026-04-23 07:58 | 45.31596 | 14.46768 | 2476 ft | 199 kts | 144° |
| 2026-04-23 07:58 | 45.30477 | 14.47864 | 2225 ft | 188 kts | 142° |
| 2026-04-23 07:59 | 45.29469 | 14.48941 | 1997 ft | 172 kts | 142° |
| 2026-04-23 07:59 | 45.28512 | 14.49942 | 1738 ft | 169 kts | 143° |
| 2026-04-23 07:59 | 45.27573 | 14.50920 | 1517 ft | 167 kts | 143° |
| 2026-04-23 07:59 | 45.26637 | 14.51897 | 1303 ft | 167 kts | 143° |
| 2026-04-23 08:00 | 45.25719 | 14.52853 | 1110 ft | 157 kts | 142° |
| 2026-04-23 08:00 | 45.24866 | 14.53742 | 859 ft | 148 kts | 141° |
| 2026-04-23 08:00 | 45.24052 | 14.54586 | 683 ft | 148 kts | 141° |
| 2026-04-23 08:00 | 45.23212 | 14.55470 | 493 ft | 151 kts | 140° |
| 2026-04-23 08:01 | 45.22361 | 14.56356 | 305 ft | 139 kts | 141° |
| 2026-04-23 08:01 | 45.21679 | 14.57068 | 262 ft | 95 kts | 143° |
| 2026-04-23 08:01 | 45.21323 | 14.57441 | 259 ft | 34 kts | 143° |
| 2026-04-23 08:01 | 45.21185 | 14.57585 | 256 ft | 23 kts | 143° |
| 2026-04-23 08:02 | 45.21058 | 14.57715 | 255 ft | 22 kts | 144° |
| 2026-04-23 08:02 | 45.20937 | 14.57834 | 256 ft | 20 kts | 145° |
| 2026-04-23 08:02 | 45.20836 | 14.57950 | 255 ft | 18 kts | 140° |
| 2026-04-23 08:02 | 45.20793 | 14.57999 | 255 ft | 0 kts | 191° |
| 2026-04-23 08:03 | 45.20788 | 14.57991 | 255 ft | 2 kts | 232° |
| 2026-04-23 08:03 | 45.20799 | 14.57971 | 255 ft | 5 kts | 325° |
| 2026-04-23 08:03 | 45.20846 | 14.57926 | 255 ft | 11 kts | 326° |
| 2026-04-23 08:03 | 45.20922 | 14.57849 | 256 ft | 16 kts | 323° |
| 2026-04-23 08:04 | 45.21025 | 14.57740 | 255 ft | 21 kts | 323° |
| 2026-04-23 08:04 | 45.21141 | 14.57617 | 256 ft | 20 kts | 323° |
| 2026-04-23 08:04 | 45.21253 | 14.57498 | 257 ft | 20 kts | 325° |
| 2026-04-23 08:04 | 45.21365 | 14.57389 | 259 ft | 19 kts | 323° |
| 2026-04-23 08:05 | 45.21472 | 14.57280 | 261 ft | 19 kts | 324° |
| 2026-04-23 08:05 | 45.21545 | 14.57215 | 262 ft | 11 kts | 329° |
| 2026-04-23 08:05 | 45.21617 | 14.57193 | 262 ft | 11 kts | 359° |
| 2026-04-23 08:05 | 45.21689 | 14.57197 | 263 ft | 10 kts | 2° |
| 2026-04-23 08:06 | 45.21759 | 14.57202 | 263 ft | 10 kts | 2° |
| 2026-04-23 08:06 | 45.21821 | 14.57167 | 264 ft | 10 kts | 324° |
| 2026-04-23 08:06 | 45.21874 | 14.57117 | 264 ft | 5 kts | 327° |
| 2026-04-23 08:06 | 45.21906 | 14.57093 | 264 ft | 5 kts | 0° |
| 2026-04-23 08:07 | 45.21917 | 14.57125 | 264 ft | 0 kts | 99° |
| 2026-04-23 08:07 | 45.21916 | 14.57131 | 264 ft | 1 kts | 101° |